Time;durP1;ratioP1;P1;durP2;ratioP2;P2;SDS_P1;SDS_P2;PMS_P1;PMS_P2;Temp;Humidity;BMP_temperature;BMP_pressure;BME280_temperature;BME280_humidity;BME280_pressure;Samples;Min_cycle;Max_cycle;Signal;HPM_P1;HPM_P2
2022/09/15 00:04:48;;;;;;;;;;;;;;;;;;10422409;28;19929;-59
2022/09/15 00:09:50;;;;;;;;;;;;;;;;;;10423048;28;19925;-59
2022/09/15 00:14:52;;;;;;;;;;;;;;;;;;10419550;28;20327;-59
2022/09/15 00:19:54;;;;;;;;;;;;;;;;;;10422632;28;19925;-59
2022/09/15 00:24:56;;;;;;;;;;;;;;;;;;10420611;28;19968;-59
2022/09/15 00:29:58;;;;;;;;;;;;;;;;;;10422085;28;19925;-59
2022/09/15 00:35:00;;;;;;;;;;;;;;;;;;10418858;28;19926;-59
2022/09/15 00:40:02;;;;;;;;;;;;;;;;;;10421208;28;19925;-59
2022/09/15 00:45:04;;;;;;;;;;;;;;;;;;10420260;28;19932;-59
2022/09/15 00:50:06;;;;;;;;;;;;;;;;;;10420942;28;19987;-60
2022/09/15 00:55:09;;;;;;;;;;;;;;;;;;10419780;28;19975;-60
2022/09/15 01:00:11;;;;;;;;;;;;;;;;;;10421179;28;19929;-59
2022/09/15 01:05:13;;;;;;;;;;;;;;;;;;10418055;28;19925;-60
2022/09/15 01:10:15;;;;;;;;;;;;;;;;;;10419553;28;19925;-59
2022/09/15 01:15:18;;;;;;;;;;;;;;;;;;10419739;28;19925;-60
2022/09/15 01:20:20;;;;;;;;;;;;;;;;;;10419760;28;20368;-60
2022/09/15 01:25:22;;;;;;;;;;;;;;;;;;10418704;28;19925;-59
2022/09/15 01:30:24;;;;;;;;;;;;;;;;;;10419935;28;19925;-60
2022/09/15 01:35:26;;;;;;;;;;;;;;;;;;10417224;28;19984;-59
2022/09/15 01:40:28;;;;;;;;;;;;;;;;;;10418556;28;19975;-60
2022/09/15 01:45:31;;;;;;;;;;;;;;;;;;10416942;28;19991;-60
2022/09/15 01:50:33;;;;;;;;;;;;;;;;;;10419221;28;19926;-60
2022/09/15 01:55:36;;;;;;;;;;;;;;;;;;10400432;28;19925;-59
2022/09/15 02:00:38;;;;;;;;;;;;;;;;;;10418150;28;19925;-59
2022/09/15 02:05:40;;;;;;;;;;;;;;;;;;10418154;28;19929;-59
2022/09/15 02:10:42;;;;;;;;;;;;;;;;;;10416679;28;19929;-60
2022/09/15 02:15:50;;;;;;;;;;;;;;;;;;10417477;28;19925;-60
2022/09/15 02:20:53;;;;;;;;;;;;;;;;;;10416163;28;20292;-60
2022/09/15 02:25:55;;;;;;;;;;;;;;;;;;10416443;28;19995;-59
2022/09/15 02:30:57;;;;;;;;;;;;;;;;;;10416500;28;19925;-60
2022/09/15 02:35:59;;;;;;;;;;;;;;;;;;10417335;28;19925;-60
2022/09/15 02:41:01;;;;;;;;;;;;;;;;;;10416045;28;19925;-60
2022/09/15 02:46:03;;;;;;;;;;;;;;;;;;10417079;28;19987;-59
2022/09/15 02:51:05;;;;;;;;;;;;;;;;;;10414878;28;19951;-59
2022/09/15 02:56:07;;;;;;;;;;;;;;;;;;10416673;28;19929;-59
2022/09/15 03:01:11;;;;;;;;;;;;;;;;;;10414744;28;19925;-59
2022/09/15 03:06:16;;;;;;;;;;;;;;;;;;10416453;28;19925;-60
2022/09/15 03:11:18;;;;;;;;;;;;;;;;;;10414067;28;19967;-59
2022/09/15 03:16:20;;;;;;;;;;;;;;;;;;10416258;28;19925;-59
2022/09/15 03:21:24;;;;;;;;;;;;;;;;;;10414340;28;19971;-60
2022/09/15 03:26:26;;;;;;;;;;;;;;;;;;10415473;28;19947;-59
2022/09/15 03:31:28;;;;;;;;;;;;;;;;;;10413852;28;19929;-59
2022/09/15 03:36:31;;;;;;;;;;;;;;;;;;10415832;28;19976;-59
2022/09/15 03:41:33;;;;;;;;;;;;;;;;;;10413402;28;19925;-60
2022/09/15 03:46:35;;;;;;;;;;;;;;;;;;10415672;28;19925;-60
2022/09/15 03:51:37;;;;;;;;;;;;;;;;;;10414147;28;20361;-60
2022/09/15 03:56:39;;;;;;;;;;;;;;;;;;10414731;28;19929;-60
2022/09/15 04:01:41;;;;;;;;;;;;;;;;;;10412319;28;19925;-60
2022/09/15 04:06:43;;;;;;;;;;;;;;;;;;10415266;28;19925;-60
2022/09/15 04:11:46;;;;;;;;;;;;;;;;;;10414433;28;19925;-59
2022/09/15 04:16:48;;;;;;;;;;;;;;;;;;10414385;28;19925;-60
2022/09/15 04:21:50;;;;;;;;;;;;;;;;;;10413256;28;19925;-60
2022/09/15 04:26:52;;;;;;;;;;;;;;;;;;10421922;28;19925;-60
2022/09/15 04:31:54;;;;;;;;;;;;;;;;;;10419805;28;19925;-60
2022/09/15 04:36:56;;;;;;;;;;;;;;;;;;10421998;28;19925;-60
2022/09/15 04:41:58;;;;;;;;;;;;;;;;;;10421131;28;19929;-59
2022/09/15 04:47:01;;;;;;;;;;;;;;;;;;10421644;28;19925;-59
2022/09/15 04:52:03;;;;;;;;;;;;;;;;;;10419952;28;19967;-60
2022/09/15 04:57:10;;;;;;;;;;;;;;;;;;10421264;28;19975;-59
2022/09/15 05:02:12;;;;;;;;;;;;;;;;;;10420326;28;19971;-60
2022/09/15 05:07:14;;;;;;;;;;;;;;;;;;10420754;28;19929;-60
2022/09/15 05:12:16;;;;;;;;;;;;;;;;;;10419229;28;19925;-60
2022/09/15 05:17:18;;;;;;;;;;;;;;;;;;10419845;28;20273;-60
2022/09/15 05:22:20;;;;;;;;;;;;;;;;;;10419129;28;19926;-59
2022/09/15 05:27:22;;;;;;;;;;;;;;;;;;10419566;28;19932;-60
2022/09/15 05:32:24;;;;;;;;;;;;;;;;;;10418315;28;19932;-60
2022/09/15 05:37:26;;;;;;;;;;;;;;;;;;10418249;28;19998;-59
2022/09/15 05:42:28;;;;;;;;;;;;;;;;;;10418780;28;19933;-60
2022/09/15 05:47:30;;;;;;;;;;;;;;;;;;10418746;28;20292;-59
2022/09/15 05:52:32;;;;;;;;;;;;;;;;;;10416848;28;19925;-59
2022/09/15 05:57:34;;;;;;;;;;;;;;;;;;10418249;28;19994;-60
2022/09/15 06:02:36;;;;;;;;;;;;;;;;;;10417736;28;20028;-59
2022/09/15 06:07:38;;;;;;;;;;;;;;;;;;10417887;28;20396;-59
2022/09/15 06:12:40;;;;;;;;;;;;;;;;;;10416517;28;20311;-60
2022/09/15 06:17:42;;;;;;;;;;;;;;;;;;10418102;28;19925;-59
2022/09/15 06:22:44;;;;;;;;;;;;;;;;;;10416527;28;19925;-60
2022/09/15 06:27:46;;;;;;;;;;;;;;;;;;10416523;28;19932;-60
2022/09/15 06:32:48;;;;;;;;;;;;;;;;;;10415158;28;19929;-60
2022/09/15 06:37:50;;;;;;;;;;;;;;;;;;10416679;28;20335;-60
2022/09/15 06:42:52;;;;;;;;;;;;;;;;;;10416043;28;19971;-60
2022/09/15 06:47:54;;;;;;;;;;;;;;;;;;10416929;28;19925;-59
2022/09/15 06:53:17;;;;;;;;;;;;;;;;;;10376092;28;19976;-59
2022/09/15 06:58:19;;;;;;;;;;;;;;;;;;10376280;28;19933;-60
2022/09/15 07:03:21;;;;;;;;;;;;;;;;;;10389488;28;19982;-60
2022/09/15 07:08:23;;;;;;;;;;;;;;;;;;10375240;28;20016;-60
2022/09/15 07:13:25;;;;;;;;;;;;;;;;;;10415812;28;19971;-60
2022/09/15 07:18:27;;;;;;;;;;;;;;;;;;10414773;28;19925;-60
2022/09/15 07:23:29;;;;;;;;;;;;;;;;;;10398606;28;19929;-59
2022/09/15 07:28:31;;;;;;;;;;;;;;;;;;10376111;28;19938;-60
2022/09/15 07:33:33;;;;;;;;;;;;;;;;;;10410135;28;19957;-59
2022/09/15 07:38:35;;;;;;;;;;;;;;;;;;10414927;28;19925;-60
2022/09/15 07:43:37;;;;;;;;;;;;;;;;;;10415393;28;19975;-60
2022/09/15 07:48:40;;;;;;;;;;;;;;;;;;10414867;28;19936;-60
2022/09/15 07:53:42;;;;;;;;;;;;;;;;;;10414943;28;20327;-60
2022/09/15 07:58:44;;;;;;;;;;;;;;;;;;10418146;28;19932;-60
2022/09/15 08:03:47;;;;;;;;;;;;;;;;;;10423337;28;19925;-59
2022/09/15 08:08:50;;;;;;;;;;;;;;;;;;10423061;28;19983;-60
2022/09/15 08:13:56;;;;;;;;;;;;;;;;;;10422893;28;19925;-60
2022/09/15 08:18:58;;;;;;;;;;;;;;;;;;10422770;28;19929;-60
2022/09/15 08:24:00;;;;;;;;;;;;;;;;;;10422325;28;19929;-60
2022/09/15 08:29:02;;;;;;;;;;;;;;;;;;10422122;28;19925;-60
2022/09/15 08:34:05;;;;;;;;;;;;;;;;;;10421125;28;20377;-60
2022/09/15 08:39:07;;;;;;;;;;;;;;;;;;10421988;28;19976;-60
2022/09/15 08:44:09;;;;;;;;;;;;;;;;;;10421052;28;19929;-58
2022/09/15 08:49:12;;;;;;;;;;;;;;;;;;10405370;28;19925;-57
2022/09/15 08:54:14;;;;;;;;;;;;;;;;;;10378585;28;19925;-57
2022/09/15 08:59:16;;;;;;;;;;;;;;;;;;10379458;28;20258;-57
2022/09/15 09:04:18;;;;;;;;;;;;;;;;;;10380233;28;19925;-57
2022/09/15 09:09:20;;;;;;;;;;;;;;;;;;10377819;28;20439;-57
2022/09/15 09:14:22;;;;;;;;;;;;;;;;;;10379097;28;19991;-57
2022/09/15 09:19:24;;;;;;;;;;;;;;;;;;10379525;28;19925;-57
2022/09/15 09:24:29;;;;;;;;;;;;;;;;;;10405523;28;19936;-57
2022/09/15 09:29:31;;;;;;;;;;;;;;;;;;10415856;28;19929;-58
2022/09/15 09:34:34;;;;;;;;;;;;;;;;;;10415386;28;19971;-57
2022/09/15 09:39:36;;;;;;;;;;;;;;;;;;10418429;28;19979;-58
2022/09/15 09:44:38;;;;;;;;;;;;;;;;;;10419236;28;19979;-57
2022/09/15 09:49:40;;;;;;;;;;;;;;;;;;10418659;28;19929;-58
2022/09/15 09:54:43;;;;;;;;;;;;;;;;;;10419013;28;19933;-58
2022/09/15 09:59:45;;;;;;;;;;;;;;;;;;10418092;28;19925;-58
2022/09/15 10:04:47;;;;;;;;;;;;;;;;;;10416649;28;19932;-58
2022/09/15 10:09:49;;;;;;;;;;;;;;;;;;10415893;28;20399;-57
2022/09/15 10:14:51;;;;;;;;;;;;;;;;;;10416102;28;19925;-58
2022/09/15 10:19:53;;;;;;;;;;;;;;;;;;10415232;28;20400;-57
2022/09/15 10:24:55;;;;;;;;;;;;;;;;;;10414554;28;20395;-57
2022/09/15 10:29:57;;;;;;;;;;;;;;;;;;10414630;28;20395;-58
2022/09/15 10:35:00;;;;;;;;;;;;;;;;;;10417355;28;19929;-62
2022/09/15 10:40:02;;;;;;;;;;;;;;;;;;10399308;28;19933;-58
2022/09/15 10:45:04;;;;;;;;;;;;;;;;;;10387875;28;19933;-57
2022/09/15 10:50:06;;;;;;;;;;;;;;;;;;10411280;28;19925;-57
2022/09/15 10:55:09;;;;;;;;;;;;;;;;;;10413370;28;20372;-58
2022/09/15 11:00:11;;;;;;;;;;;;;;;;;;10412721;28;20391;-58
2022/09/15 11:05:14;;;;;;;;;;;;;;;;;;10415156;28;20337;-58
2022/09/15 11:10:19;;;;;;;;;;;;;;;;;;10413457;28;19936;-58
2022/09/15 11:15:21;;;;;;;;;;;;;;;;;;10414515;28;19987;-58
2022/09/15 11:20:24;;;;;;;;;;;;;;;;;;10413137;28;20388;-58
2022/09/15 11:25:26;;;;;;;;;;;;;;;;;;10412646;28;19925;-58
2022/09/15 11:30:28;;;;;;;;;;;;;;;;;;10411910;28;20285;-58
2022/09/15 11:35:30;;;;;;;;;;;;;;;;;;10420448;28;19976;-58
2022/09/15 11:40:32;;;;;;;;;;;;;;;;;;10421227;28;19925;-58
2022/09/15 11:45:34;;;;;;;;;;;;;;;;;;10428899;22;19959;-61
2022/09/15 11:50:36;;;;;;;;;;;;;;;;;;10421942;28;20264;-61
2022/09/15 11:55:38;;;;;;;;;;;;;;;;;;10401492;28;20425;-61
2022/09/15 12:00:42;;;;;;;;;;;;;;;;;;10419435;28;19979;-61
2022/09/15 12:05:44;;;;;;;;;;;;;;;;;;10421451;28;19925;-61
2022/09/15 12:10:46;;;;;;;;;;;;;;;;;;10422721;28;19979;-61
2022/09/15 12:15:48;;;;;;;;;;;;;;;;;;10420294;28;19980;-62
2022/09/15 12:20:50;;;;;;;;;;;;;;;;;;10422327;28;20380;-61
2022/09/15 12:25:52;;;;;;;;;;;;;;;;;;10416465;28;19925;-61
2022/09/15 12:30:54;;;;;;;;;;;;;;;;;;10419185;28;19933;-61
2022/09/15 12:35:56;;;;;;;;;;;;;;;;;;10420534;28;19929;-61
2022/09/15 12:40:59;;;;;;;;;;;;;;;;;;10419281;28;19925;-61
2022/09/15 12:46:01;;;;;;;;;;;;;;;;;;10405270;28;19991;-62
2022/09/15 12:51:03;;;;;;;;;;;;;;;;;;10419441;28;19947;-61
2022/09/15 12:56:06;;;;;;;;;;;;;;;;;;10417762;28;20335;-61
2022/09/15 13:01:08;;;;;;;;;;;;;;;;;;10418764;28;19925;-61
2022/09/15 13:06:19;;;;;;;;;;;;;;;;;;10417322;28;20372;-61
2022/09/15 13:11:21;;;;;;;;;;;;;;;;;;10417924;28;19929;-61
2022/09/15 13:16:23;;;;;;;;;;;;;;;;;;10419254;28;19925;-61
2022/09/15 13:21:25;;;;;;;;;;;;;;;;;;10417016;28;19925;-61
2022/09/15 13:26:27;;;;;;;;;;;;;;;;;;10418897;28;19925;-61
2022/09/15 13:31:29;;;;;;;;;;;;;;;;;;10417196;28;19971;-67
2022/09/15 13:36:31;;;;;;;;;;;;;;;;;;10414986;28;19987;-64
2022/09/15 13:41:53;;;;;;;;;;;;;;;;;;10412341;28;20016;-64
2022/09/15 13:46:55;;;;;;;;;;;;;;;;;;10417657;28;19925;-64
2022/09/15 13:51:58;;;;;;;;;;;;;;;;;;10414965;28;20327;-64
2022/09/15 13:57:00;;;;;;;;;;;;;;;;;;10414394;28;19972;-65
2022/09/15 14:02:02;;;;;;;;;;;;;;;;;;10414431;28;19929;-63
2022/09/15 14:07:05;;;;;;;;;;;;;;;;;;10416491;28;19926;-63
2022/09/15 14:12:07;;;;;;;;;;;;;;;;;;10415978;28;19933;-63
2022/09/15 14:17:09;;;;;;;;;;;;;;;;;;10417163;28;19933;-63
2022/09/15 14:22:11;;;;;;;;;;;;;;;;;;10416014;28;20371;-61
2022/09/15 14:27:13;;;;;;;;;;;;;;;;;;10413386;28;19925;-62
2022/09/15 14:32:15;;;;;;;;;;;;;;;;;;10414123;28;19925;-63
2022/09/15 14:37:17;;;;;;;;;;;;;;;;;;10412546;28;19986;-64
2022/09/15 14:42:21;;;;;;;;;;;;;;;;;;10414556;28;19979;-63
2022/09/15 14:47:23;;;;;;;;;;;;;;;;;;10415847;28;19925;-67
2022/09/15 14:52:26;;;;;;;;;;;;;;;;;;10413107;28;19937;-67
2022/09/15 14:57:28;;;;;;;;;;;;;;;;;;10414372;28;19932;-60
2022/09/15 15:02:32;;;;;;;;;;;;;;;;;;10413086;28;20385;-59
2022/09/15 15:07:34;;;;;;;;;;;;;;;;;;10414584;28;20384;-59
2022/09/15 15:12:36;;;;;;;;;;;;;;;;;;10412370;28;19925;-60
2022/09/15 15:17:38;;;;;;;;;;;;;;;;;;10414298;28;19929;-60
2022/09/15 15:22:41;;;;;;;;;;;;;;;;;;10411845;28;19948;-59
2022/09/15 15:27:43;;;;;;;;;;;;;;;;;;10428914;28;19933;-59
2022/09/15 15:32:45;;;;;;;;;;;;;;;;;;10418419;28;19929;-59
2022/09/15 15:37:47;;;;;;;;;;;;;;;;;;10408355;28;20022;-62
2022/09/15 15:42:49;;;;;;;;;;;;;;;;;;10412760;28;19924;-62
2022/09/15 15:47:51;;;;;;;;;;;;;;;;;;10412381;28;19975;-62
2022/09/15 15:52:54;;;;;;;;;;;;;;;;;;10414208;28;19925;-62
2022/09/15 15:57:56;;;;;;;;;;;;;;;;;;10412444;28;19986;-62
2022/09/15 16:02:58;;;;;;;;;;;;;;;;;;10412056;28;19971;-61
2022/09/15 16:08:00;;;;;;;;;;;;;;;;;;10410375;28;20323;-62
2022/09/15 16:13:02;;;;;;;;;;;;;;;;;;10413527;28;20384;-62
2022/09/15 16:18:04;;;;;;;;;;;;;;;;;;10412629;28;19926;-61
2022/09/15 16:23:06;;;;;;;;;;;;;;;;;;10420058;28;20331;-59
2022/09/15 16:28:08;;;;;;;;;;;;;;;;;;10421979;28;19971;-59
2022/09/15 16:33:11;;;;;;;;;;;;;;;;;;10416890;28;19975;-59
2022/09/15 16:38:13;;;;;;;;;;;;;;;;;;10448323;28;20326;-59
2022/09/15 16:43:15;;;;;;;;;;;;;;;;;;10419117;28;19972;-59
2022/09/15 16:48:17;;;;;;;;;;;;;;;;;;10418393;28;19943;-59
2022/09/15 16:53:19;;;;;;;;;;;;;;;;;;10418839;28;19979;-59
2022/09/15 16:58:21;;;;;;;;;;;;;;;;;;10418066;28;19975;-59
2022/09/15 17:03:23;;;;;;;;;;;;;;;;;;10419469;28;19925;-59
2022/09/15 17:08:28;;;;;;;;;;;;;;;;;;10416116;28;19925;-58
2022/09/15 17:13:31;;;;;;;;;;;;;;;;;;10418664;28;19929;-59
2022/09/15 17:18:33;;;;;;;;;;;;;;;;;;10400004;28;20411;-59
2022/09/15 17:23:35;;;;;;;;;;;;;;;;;;10400493;28;19929;-59
2022/09/15 17:28:37;;;;;;;;;;;;;;;;;;10418362;28;20269;-59
2022/09/15 17:33:39;;;;;;;;;;;;;;;;;;10419965;28;20339;-58
2022/09/15 17:38:41;;;;;;;;;;;;;;;;;;10418810;28;19979;-59
2022/09/15 17:43:43;;;;;;;;;;;;;;;;;;10415259;28;20285;-59
2022/09/15 17:48:45;;;;;;;;;;;;;;;;;;10417256;28;19979;-59
2022/09/15 17:53:47;;;;;;;;;;;;;;;;;;10414502;28;20335;-58
2022/09/15 17:58:50;;;;;;;;;;;;;;;;;;10416504;28;19925;-59
2022/09/15 18:03:52;;;;;;;;;;;;;;;;;;10416982;28;19984;-59
2022/09/15 18:08:56;;;;;;;;;;;;;;;;;;10414002;28;20400;-58
2022/09/15 18:13:58;;;;;;;;;;;;;;;;;;10416054;28;19925;-58
2022/09/15 18:19:00;;;;;;;;;;;;;;;;;;10414422;28;19925;-59
2022/09/15 18:24:02;;;;;;;;;;;;;;;;;;10416328;28;19975;-59
2022/09/15 18:29:04;;;;;;;;;;;;;;;;;;10414711;28;19925;-59
2022/09/15 18:34:06;;;;;;;;;;;;;;;;;;10415986;28;19925;-59
2022/09/15 18:39:10;;;;;;;;;;;;;;;;;;10415814;28;19975;-58
2022/09/15 18:44:12;;;;;;;;;;;;;;;;;;10413137;28;19929;-59
2022/09/15 18:49:14;;;;;;;;;;;;;;;;;;10353740;28;1765238;-59
2022/09/15 18:54:16;;;;;;;;;;;;;;;;;;10399680;28;19971;-59
2022/09/15 18:59:18;;;;;;;;;;;;;;;;;;10416620;28;19925;-59
2022/09/15 19:04:20;;;;;;;;;;;;;;;;;;10413056;28;20351;-58
2022/09/15 19:09:22;;;;;;;;;;;;;;;;;;10415922;28;19928;-59
2022/09/15 19:14:25;;;;;;;;;;;;;;;;;;10415626;28;19925;-59
2022/09/15 19:19:27;;;;;;;;;;;;;;;;;;10431396;28;19929;-59
2022/09/15 19:24:32;;;;;;;;;;;;;;;;;;10412831;28;20380;-59
2022/09/15 19:29:34;;;;;;;;;;;;;;;;;;10414504;28;20303;-59
2022/09/15 19:34:37;;;;;;;;;;;;;;;;;;10442027;28;20331;-59
2022/09/15 19:39:39;;;;;;;;;;;;;;;;;;10415801;28;19925;-59
2022/09/15 19:44:42;;;;;;;;;;;;;;;;;;10415744;28;19925;-59
2022/09/15 19:49:44;;;;;;;;;;;;;;;;;;10414217;28;20296;-59
2022/09/15 19:54:46;;;;;;;;;;;;;;;;;;10418518;28;19925;-59
2022/09/15 19:59:48;;;;;;;;;;;;;;;;;;10423050;28;20273;-60
2022/09/15 20:04:51;;;;;;;;;;;;;;;;;;10421492;28;19925;-59
2022/09/15 20:09:54;;;;;;;;;;;;;;;;;;10423428;28;19978;-59
2022/09/15 20:14:56;;;;;;;;;;;;;;;;;;10422552;28;20375;-59
2022/09/15 20:19:58;;;;;;;;;;;;;;;;;;10420617;28;19925;-59
2022/09/15 20:25:00;;;;;;;;;;;;;;;;;;10422751;28;19972;-59
2022/09/15 20:30:02;;;;;;;;;;;;;;;;;;10421720;28;19980;-59
2022/09/15 20:35:04;;;;;;;;;;;;;;;;;;10421760;28;20319;-59
2022/09/15 20:40:07;;;;;;;;;;;;;;;;;;10421504;28;20514;-59
2022/09/15 20:45:09;;;;;;;;;;;;;;;;;;10419539;28;19960;-58
2022/09/15 20:50:11;;;;;;;;;;;;;;;;;;10402983;28;20286;-59
2022/09/15 20:55:13;;;;;;;;;;;;;;;;;;10419090;28;19925;-59
2022/09/15 21:00:16;;;;;;;;;;;;;;;;;;10415716;28;20021;-58
2022/09/15 21:05:18;;;;;;;;;;;;;;;;;;10420081;28;20430;-58
2022/09/15 21:10:23;;;;;;;;;;;;;;;;;;10420476;28;19987;-59
2022/09/15 21:15:25;;;;;;;;;;;;;;;;;;10419325;28;20438;-58
2022/09/15 21:20:27;;;;;;;;;;;;;;;;;;10419414;28;19979;-59
2022/09/15 21:25:29;;;;;;;;;;;;;;;;;;10419030;28;19925;-59
2022/09/15 21:30:31;;;;;;;;;;;;;;;;;;10420310;28;19925;-59
2022/09/15 21:35:33;;;;;;;;;;;;;;;;;;10419474;28;20375;-59
2022/09/15 21:40:36;;;;;;;;;;;;;;;;;;10417772;28;19925;-59
2022/09/15 21:45:38;;;;;;;;;;;;;;;;;;10419402;28;19932;-59
2022/09/15 21:50:40;;;;;;;;;;;;;;;;;;10419513;28;19925;-59
2022/09/15 21:55:42;;;;;;;;;;;;;;;;;;10417633;28;19925;-59
2022/09/15 22:00:44;;;;;;;;;;;;;;;;;;10417063;28;19951;-59
2022/09/15 22:05:46;;;;;;;;;;;;;;;;;;10418269;28;20380;-59
2022/09/15 22:10:48;;;;;;;;;;;;;;;;;;10418689;28;19975;-59
2022/09/15 22:15:50;;;;;;;;;;;;;;;;;;10415703;28;19925;-59
2022/09/15 22:20:53;;;;;;;;;;;;;;;;;;10415511;28;19952;-59
2022/09/15 22:25:55;;;;;;;;;;;;;;;;;;10418065;28;19925;-59
2022/09/15 22:30:57;;;;;;;;;;;;;;;;;;10417419;28;20351;-59
2022/09/15 22:35:59;;;;;;;;;;;;;;;;;;10415821;28;19925;-59
2022/09/15 22:41:01;;;;;;;;;;;;;;;;;;10417459;28;19975;-59
2022/09/15 22:46:03;;;;;;;;;;;;;;;;;;10417205;28;19925;-58
2022/09/15 22:51:05;;;;;;;;;;;;;;;;;;10414962;28;19925;-59
2022/09/15 22:56:07;;;;;;;;;;;;;;;;;;10398543;28;19929;-59
2022/09/15 23:01:09;;;;;;;;;;;;;;;;;;10416187;28;19925;-59
2022/09/15 23:06:11;;;;;;;;;;;;;;;;;;10416081;28;19932;-59
2022/09/15 23:11:13;;;;;;;;;;;;;;;;;;10415211;28;20431;-59
2022/09/15 23:16:15;;;;;;;;;;;;;;;;;;10415728;28;19925;-59
2022/09/15 23:21:18;;;;;;;;;;;;;;;;;;10414557;28;19925;-59
2022/09/15 23:26:20;;;;;;;;;;;;;;;;;;10414834;28;19933;-59
2022/09/15 23:31:22;;;;;;;;;;;;;;;;;;10373869;28;19953;-59
2022/09/15 23:36:24;;;;;;;;;;;;;;;;;;10393363;28;19932;-59
2022/09/15 23:41:26;;;;;;;;;;;;;;;;;;10415174;28;19925;-59
2022/09/15 23:46:28;;;;;;;;;;;;;;;;;;10413757;28;20331;-59
2022/09/15 23:51:30;;;;;;;;;;;;;;;;;;10415045;28;20373;-59
2022/09/15 23:56:33;;;;;;;;;;;;;;;;;;10414327;28;19929;-59
